Time;durP1;ratioP1;P1;durP2;ratioP2;P2;SDS_P1;SDS_P2;PMS_P1;PMS_P2;Temp;Humidity;BMP_temperature;BMP_pressure;BME280_temperature;BME280_humidity;BME280_pressure;Samples;Min_cycle;Max_cycle;Signal;HPM_P1;HPM_P2
2024/03/25 00:00:14;;;;;;;1.50;1.40;;;;;;;-0.03;69.43;100142.97;5000056;28;20824;-76
2024/03/25 00:02:42;;;;;;;1.60;1.40;;;;;;;-0.03;69.94;100140.41;5002864;28;20443;-75
2024/03/25 00:05:09;;;;;;;2.30;1.20;;;;;;;-0.03;69.57;100143.84;5001422;28;20456;-75
2024/03/25 00:07:36;;;;;;;1.77;1.37;;;;;;;-0.02;69.67;100140.44;5002591;28;20463;-75
2024/03/25 00:10:06;;;;;;;2.90;1.30;;;;;;;-0.00;69.46;100148.16;5002452;28;20826;-79
2024/03/25 00:12:33;;;;;;;2.13;1.60;;;;;;;0.00;69.82;100141.31;5005011;28;21047;-78
2024/03/25 00:14:59;;;;;;;1.57;1.40;;;;;;;0.01;69.71;100135.31;5000374;28;20491;-79
2024/03/25 00:17:26;;;;;;;2.67;1.40;;;;;;;0.01;69.94;100145.59;5000355;28;20452;-79
2024/03/25 00:19:52;;;;;;;2.43;1.73;;;;;;;0.02;69.85;100144.75;5002960;28;20205;-78
2024/03/25 00:22:19;;;;;;;1.87;1.20;;;;;;;0.04;69.72;100144.78;5001157;28;20459;-78
2024/03/25 00:24:45;;;;;;;1.67;1.30;;;;;;;0.04;69.87;100148.19;5001982;28;20231;-79
2024/03/25 00:27:13;;;;;;;1.67;1.47;;;;;;;0.05;69.37;100146.47;5002235;28;20531;-79
2024/03/25 00:29:40;;;;;;;2.27;1.17;;;;;;;0.06;69.73;100149.09;5002887;28;20448;-79
2024/03/25 00:32:07;;;;;;;1.60;1.30;;;;;;;0.05;69.62;100149.94;5007115;28;20448;-78
2024/03/25 00:34:33;;;;;;;1.90;1.40;;;;;;;0.06;69.43;100148.22;5003349;28;20787;-79
2024/03/25 00:37:00;;;;;;;1.90;1.27;;;;;;;0.06;69.40;100148.22;5003415;28;20467;-79
2024/03/25 00:39:27;;;;;;;1.63;1.33;;;;;;;0.04;69.62;100150.78;5004705;28;20201;-79
2024/03/25 00:41:54;;;;;;;1.70;1.27;;;;;;;0.05;68.86;100157.66;5003723;28;20539;-78
2024/03/25 00:44:21;;;;;;;2.20;1.50;;;;;;;0.04;69.44;100155.91;5005371;28;20442;-78
2024/03/25 00:46:48;;;;;;;2.20;1.20;;;;;;;0.02;69.72;100160.16;5006142;28;20523;-79
2024/03/25 00:49:14;;;;;;;1.60;1.27;;;;;;;0.03;69.18;100164.50;5004055;28;20790;-79
2024/03/25 00:51:41;;;;;;;1.67;1.30;;;;;;;0.05;69.01;100162.81;5006616;28;20462;-74
2024/03/25 00:54:07;;;;;;;2.37;1.23;;;;;;;0.06;69.24;100163.66;5004259;28;20662;-74
2024/03/25 00:56:34;;;;;;;2.23;1.17;;;;;;;0.05;69.73;100164.50;5006708;28;20491;-74
2024/03/25 00:59:02;;;;;;;1.20;1.10;;;;;;;0.04;69.65;100165.34;5005425;28;20531;-74
2024/03/25 01:01:31;;;;;;;1.10;1.00;;;;;;;0.03;69.74;100167.06;5006772;28;20820;-74
2024/03/25 01:03:57;;;;;;;3.00;1.00;;;;;;;0.02;69.02;100167.88;5006802;28;20448;-74
2024/03/25 01:06:24;;;;;;;1.73;1.30;;;;;;;0.02;69.02;100167.03;5005375;28;20464;-74
2024/03/25 01:08:50;;;;;;;3.93;1.60;;;;;;;-0.02;69.32;100166.16;5007602;28;20524;-74
2024/03/25 01:11:17;;;;;;;1.67;1.30;;;;;;;-0.01;68.62;100167.84;5003495;28;20888;-74
2024/03/25 01:13:43;;;;;;;1.97;1.67;;;;;;;-0.01;68.80;100167.84;5007168;28;20804;-74
2024/03/25 01:16:10;;;;;;;2.40;1.30;;;;;;;-0.02;68.78;100161.00;5003668;28;20489;-74
2024/03/25 01:18:38;;;;;;;1.50;1.27;;;;;;;-0.01;69.13;100167.00;5004180;28;20229;-74
2024/03/25 01:21:05;;;;;;;2.97;1.67;;;;;;;0.00;69.04;100172.19;5005389;28;20456;-79
2024/03/25 01:23:31;;;;;;;0.90;0.90;;;;;;;-0.02;68.74;100176.44;5006766;28;20433;-79
2024/03/25 01:25:58;;;;;;;2.70;1.40;;;;;;;-0.02;68.89;100175.56;5005216;28;20451;-79
2024/03/25 01:28:24;;;;;;;1.60;1.40;;;;;;;-0.04;69.27;100162.69;5007368;28;20201;-79
2024/03/25 01:30:51;;;;;;;2.07;1.30;;;;;;;-0.02;68.56;100175.56;5002671;28;20960;-79
2024/03/25 01:33:17;;;;;;;3.80;1.50;;;;;;;-0.03;68.70;100168.69;5003153;28;20658;-78
2024/03/25 01:35:45;;;;;;;3.40;1.63;;;;;;;-0.03;69.21;100172.16;5005930;28;20486;-79
2024/03/25 01:38:11;;;;;;;1.40;1.20;;;;;;;-0.03;69.13;100173.81;5005326;28;20209;-79
2024/03/25 01:40:38;;;;;;;3.03;1.37;;;;;;;-0.01;69.19;100174.72;5005283;28;20447;-79
2024/03/25 01:43:04;;;;;;;1.40;1.20;;;;;;;-0.02;69.46;100173.00;5005847;28;20201;-79
2024/03/25 01:45:32;;;;;;;1.60;1.23;;;;;;;-0.01;69.29;100173.00;5004640;28;20467;-79
2024/03/25 01:48:02;;;;;;;2.20;1.30;;;;;;;0.00;69.18;100164.47;5006233;28;20210;-78
2024/03/25 01:50:29;;;;;;;2.77;1.37;;;;;;;-0.03;69.48;100164.44;5003993;28;20455;-79
2024/03/25 01:52:57;;;;;;;2.03;1.13;;;;;;;0.02;69.04;100177.31;5005146;28;20447;-78
2024/03/25 01:55:28;;;;;;;2.60;1.23;;;;;;;0.03;69.01;100174.78;5003500;28;20488;-79
2024/03/25 01:57:54;;;;;;;2.50;1.17;;;;;;;0.04;69.18;100178.22;5004291;28;20480;-78
2024/03/25 02:00:22;;;;;;;2.07;1.60;;;;;;;0.03;68.50;100172.19;5005192;28;20455;-75
2024/03/25 02:02:49;;;;;;;1.27;1.17;;;;;;;0.00;68.47;100169.59;5002042;28;20455;-76
2024/03/25 02:05:17;;;;;;;1.10;1.00;;;;;;;0.02;69.15;100172.16;5006338;28;20490;-75
2024/03/25 02:07:43;;;;;;;1.20;1.10;;;;;;;0.01;68.85;100170.47;5003024;28;20795;-75
2024/03/25 02:10:14;;;;;;;1.30;1.20;;;;;;;0.00;68.52;100185.03;5004440;28;20460;-75
2024/03/25 02:12:41;;;;;;;1.00;0.90;;;;;;;-0.00;68.56;100179.03;5004087;28;20531;-75
2024/03/25 02:15:09;;;;;;;1.43;1.20;;;;;;;-0.02;68.97;100175.56;5002318;28;20520;-75
2024/03/25 02:17:35;;;;;;;1.70;1.20;;;;;;;-0.02;69.09;100184.16;5005223;28;20459;-75
2024/03/25 02:20:02;;;;;;;2.50;1.27;;;;;;;-0.03;69.28;100179.84;5001637;28;20444;-75
2024/03/25 02:22:29;;;;;;;1.40;1.30;;;;;;;-0.02;68.97;100179.00;5005750;28;20622;-75
2024/03/25 02:24:58;;;;;;;1.40;1.30;;;;;;;-0.04;68.33;100185.81;5003812;28;20494;-76
2024/03/25 02:27:28;;;;;;;1.63;1.33;;;;;;;-0.05;68.74;100191.81;5004783;28;20448;-75
2024/03/25 02:29:55;;;;;;;3.57;1.37;;;;;;;-0.07;68.12;100188.38;5005766;28;20447;-78
2024/03/25 02:32:21;;;;;;;1.10;1.00;;;;;;;-0.09;68.24;100190.06;5002792;28;20451;-77
2024/03/25 02:34:51;;;;;;;1.20;1.10;;;;;;;-0.09;68.17;100195.19;5006522;28;20448;-77
2024/03/25 02:37:18;;;;;;;1.33;1.23;;;;;;;-0.10;68.65;100190.91;5001917;28;20692;-78
2024/03/25 02:39:45;;;;;;;2.80;1.30;;;;;;;-0.10;68.13;100188.34;5002780;28;20454;-78
2024/03/25 02:42:11;;;;;;;2.00;1.20;;;;;;;-0.13;68.12;100189.16;5003508;28;20455;-75
2024/03/25 02:44:43;;;;;;;3.43;1.27;;;;;;;-0.15;68.69;100180.59;5004932;28;20455;-77
2024/03/25 02:47:09;;;;;;;1.80;1.40;;;;;;;-0.10;68.13;100190.91;5002811;28;20197;-78
2024/03/25 02:49:36;;;;;;;1.37;1.20;;;;;;;-0.11;68.47;100202.03;5006646;28;20820;-75
2024/03/25 02:52:02;;;;;;;1.40;1.30;;;;;;;-0.10;68.45;100203.75;5005336;28;20448;-78
2024/03/25 02:54:29;;;;;;;1.37;1.10;;;;;;;-0.10;68.56;100198.63;5002884;28;20475;-78
2024/03/25 02:56:54;;;;;;;2.53;1.33;;;;;;;-0.13;68.21;100196.00;5003406;28;20240;-78
2024/03/25 02:59:21;;;;;;;2.20;1.30;;;;;;;-0.12;68.34;100192.59;5005594;28;20443;-77
2024/03/25 03:01:49;;;;;;;1.43;1.20;;;;;;;-0.13;68.59;100194.31;5003767;28;20202;-77
2024/03/25 03:04:15;;;;;;;1.80;1.40;;;;;;;-0.15;68.51;100198.59;5002613;28;20452;-77
2024/03/25 03:06:41;;;;;;;1.13;1.03;;;;;;;-0.14;68.80;100202.00;5005392;28;20448;-77
2024/03/25 03:09:08;;;;;;;1.43;1.30;;;;;;;-0.15;68.50;100205.41;5001923;28;20468;-76
2024/03/25 03:11:34;;;;;;;1.57;1.47;;;;;;;-0.14;68.84;100209.72;5005811;28;20211;-79
2024/03/25 03:14:01;;;;;;;3.40;1.07;;;;;;;-0.15;68.89;100207.97;4999585;28;20459;-79
2024/03/25 03:16:27;;;;;;;2.10;1.23;;;;;;;-0.14;68.42;100207.16;5005937;28;20492;-79
2024/03/25 03:18:55;;;;;;;3.47;1.60;;;;;;;-0.12;68.60;100215.72;5004419;28;20444;-79
2024/03/25 03:21:21;;;;;;;1.43;1.33;;;;;;;-0.13;68.50;100209.72;5003370;28;20209;-80
2024/03/25 03:23:48;;;;;;;1.30;1.20;;;;;;;-0.15;68.62;100218.28;5004673;28;20455;-80
2024/03/25 03:26:14;;;;;;;1.50;1.10;;;;;;;-0.17;68.19;100217.41;5001760;28;20205;-78
2024/03/25 03:28:41;;;;;;;2.63;1.60;;;;;;;-0.15;68.28;100211.44;5002059;28;20822;-79
2024/03/25 03:31:07;;;;;;;1.47;1.30;;;;;;;-0.16;68.50;100219.13;5005228;28;20201;-79
2024/03/25 03:33:34;;;;;;;3.47;1.20;;;;;;;-0.16;68.49;100219.97;5001046;28;20458;-78
2024/03/25 03:36:01;;;;;;;1.30;1.20;;;;;;;-0.16;68.36;100219.97;5002524;28;20233;-80
2024/03/25 03:38:28;;;;;;;2.03;1.37;;;;;;;-0.17;67.99;100225.13;5003730;28;20455;-79
2024/03/25 03:40:58;;;;;;;1.83;1.37;;;;;;;-0.14;68.61;100232.88;5003564;28;20455;-81
2024/03/25 03:43:24;;;;;;;1.53;1.30;;;;;;;-0.15;68.17;100237.16;5002250;28;20459;-82
2024/03/25 03:45:50;;;;;;;1.17;1.07;;;;;;;-0.15;68.62;100237.16;5001188;28;20478;-81
2024/03/25 03:48:17;;;;;;;1.80;1.40;;;;;;;-0.12;68.21;100238.88;5004766;28;20447;-81
2024/03/25 03:50:43;;;;;;;1.20;1.10;;;;;;;-0.13;68.37;100244.88;5001168;28;20216;-81
2024/03/25 03:53:12;;;;;;;1.63;1.10;;;;;;;-0.13;68.17;100244.88;5002287;28;20457;-83
2024/03/25 03:55:39;;;;;;;2.60;1.50;;;;;;;-0.12;68.53;100251.72;5003384;28;20486;-80
2024/03/25 03:58:06;;;;;;;1.67;1.10;;;;;;;-0.10;68.70;100252.63;5006104;28;20424;-81
2024/03/25 04:00:34;;;;;;;1.80;1.27;;;;;;;-0.09;68.00;100251.75;5005261;28;20206;-79
2024/03/25 04:03:02;;;;;;;1.43;1.13;;;;;;;-0.10;68.34;100252.63;5004632;28;20494;-80
2024/03/25 04:05:31;;;;;;;1.90;1.40;;;;;;;-0.15;68.52;100242.31;5004342;28;20456;-80
2024/03/25 04:07:58;;;;;;;2.37;1.30;;;;;;;-0.08;68.76;100253.50;5008388;28;20452;-79
2024/03/25 04:10:27;;;;;;;2.03;1.30;;;;;;;-0.07;68.57;100254.38;5004953;28;20538;-80
2024/03/25 04:12:54;;;;;;;1.93;1.57;;;;;;;-0.07;68.08;100252.66;5007093;28;20461;-80
2024/03/25 04:15:19;;;;;;;1.63;1.13;;;;;;;-0.08;68.44;100245.81;5006175;28;20453;-81
2024/03/25 04:17:48;;;;;;;2.87;1.17;;;;;;;-0.07;68.36;100255.22;5008173;28;20450;-79
2024/03/25 04:20:15;;;;;;;1.33;1.10;;;;;;;-0.07;68.45;100254.38;5004856;28;20202;-78
2024/03/25 04:22:43;;;;;;;1.57;1.40;;;;;;;-0.06;68.53;100261.22;5004847;28;20440;-78
2024/03/25 04:25:10;;;;;;;0.93;0.90;;;;;;;-0.08;68.52;100256.09;5007533;28;20859;-79
2024/03/25 04:27:39;;;;;;;1.33;1.20;;;;;;;-0.06;68.23;100266.38;5004842;28;20451;-80
2024/03/25 04:30:07;;;;;;;1.53;1.13;;;;;;;-0.05;68.49;100271.53;5006862;28;20499;-79
2024/03/25 04:32:34;;;;;;;2.00;1.50;;;;;;;-0.04;67.91;100264.69;5004432;28;20452;-79
2024/03/25 04:35:00;;;;;;;1.90;1.23;;;;;;;-0.06;68.04;100266.38;5004690;28;20975;-79
